createdAt,value
2018-06-29T00:00:57.253Z,99.99
2018-06-29T00:01:57.835Z,99.99
2018-06-29T00:02:57.388Z,99.99
2018-06-29T00:03:57.052Z,99.99
2018-06-29T00:04:57.473Z,99.99
2018-06-29T00:06:18.891Z,99.99
2018-06-29T00:07:19.103Z,99.99
2018-06-29T00:08:40.471Z,99.99
2018-06-29T00:09:40.962Z,99.99
2018-06-29T00:10:41.490Z,99.99
2018-06-29T00:11:40.818Z,99.99
2018-06-29T00:12:41.159Z,99.99
2018-06-29T00:14:03.579Z,99.99
2018-06-29T00:15:03.921Z,99.99
2018-06-29T00:16:04.341Z,99.99
2018-06-29T00:17:24.643Z,99.99
2018-06-29T00:18:24.961Z,99.99
2018-06-29T00:19:46.453Z,99.99
2018-06-29T00:20:47.155Z,99.99
2018-06-29T00:22:07.585Z,99.99
2018-06-29T00:23:07.978Z,99.99
2018-06-29T00:24:29.330Z,99.99
2018-06-29T00:25:29.712Z,99.99
2018-06-29T00:26:30.093Z,99.99
2018-06-29T00:27:29.790Z,99.99
2018-06-29T00:28:30.171Z,99.99
2018-06-29T00:29:29.842Z,99.99
2018-06-29T00:30:29.242Z,99.99
2018-06-29T00:31:29.808Z,99.99
2018-06-29T00:32:30.009Z,99.99
2018-06-29T00:33:29.282Z,99.99
2018-06-29T00:34:29.846Z,99.99
2018-06-29T00:35:29.432Z,99.99
2018-06-29T00:36:29.937Z,99.99
2018-06-29T00:37:29.295Z,99.99
2018-06-29T00:38:29.893Z,99.99
2018-06-29T00:39:30.260Z,99.99
2018-06-29T00:40:50.916Z,99.99
2018-06-29T00:41:51.295Z,99.99
2018-06-29T00:43:13.081Z,99.99
2018-06-29T00:44:34.333Z,99.99
2018-06-29T00:46:19.611Z,99.99
2018-06-29T00:47:19.910Z,99.99
2018-06-29T00:48:20.301Z,99.99
2018-06-29T00:49:19.630Z,99.99
2018-06-29T00:50:20.293Z,99.99
2018-06-29T00:51:19.577Z,99.99
2018-06-29T00:52:19.860Z,99.99
2018-06-29T00:53:20.480Z,99.99
2018-06-29T00:54:19.867Z,99.99
2018-06-29T00:55:20.525Z,99.99
2018-06-29T00:56:41.104Z,99.99
2018-06-29T00:58:03.099Z,99.99
2018-06-29T00:59:03.576Z,99.99
2018-06-29T01:00:03.145Z,99.99
2018-06-29T01:01:24.788Z,99.99
2018-06-29T01:02:25.165Z,99.99
2018-06-29T01:03:24.692Z,99.99
2018-06-29T01:04:25.254Z,99.99
2018-06-29T01:05:46.285Z,99.99
2018-06-29T01:06:46.878Z,99.99
2018-06-29T01:07:46.156Z,99.99
2018-06-29T01:08:46.800Z,99.99
2018-06-29T01:09:46.087Z,99.99
2018-06-29T01:10:46.279Z,99.99
2018-06-29T01:11:46.731Z,99.99
2018-06-29T01:13:07.111Z,99.99
2018-06-29T01:14:07.568Z,99.99
2018-06-29T01:15:07.908Z,99.99
2018-06-29T01:16:07.467Z,99.99
2018-06-29T01:17:08.117Z,99.99
2018-06-29T01:18:07.684Z,99.99
2018-06-29T01:19:08.007Z,99.99
2018-06-29T01:20:07.396Z,99.99
2018-06-29T01:21:07.743Z,99.99
2018-06-29T01:22:07.990Z,99.99
2018-06-29T01:23:07.559Z,99.99
2018-06-29T01:24:08.225Z,99.99
2018-06-29T01:25:07.733Z,99.99
2018-06-29T01:26:08.182Z,99.99
2018-06-29T01:27:07.776Z,99.99
2018-06-29T01:28:07.185Z,99.99
2018-06-29T01:29:07.661Z,99.99
2018-06-29T01:30:07.987Z,99.99
2018-06-29T01:31:07.639Z,99.99
2018-06-29T01:32:07.994Z,99.96
2018-06-29T01:33:07.618Z,99.99
2018-06-29T01:34:08.169Z,99.99
2018-06-29T01:35:07.500Z,99.86
2018-06-29T01:36:07.863Z,99.99
2018-06-29T01:37:07.211Z,99.76
2018-06-29T01:38:07.694Z,99.48
2018-06-29T01:39:07.362Z,99.19
2018-06-29T01:40:07.964Z,99.57
2018-06-29T01:41:07.424Z,99.57
2018-06-29T01:42:08.003Z,99.10
2018-06-29T01:43:07.468Z,99.10
2018-06-29T01:44:07.818Z,98.81
2018-06-29T01:45:07.149Z,99.19
2018-06-29T01:46:07.519Z,98.75
2018-06-29T01:47:07.960Z,99.24
2018-06-29T01:48:07.593Z,99.33
2018-06-29T01:49:06.944Z,99.14
2018-06-29T01:50:07.348Z,98.75
2018-06-29T01:51:08.067Z,98.95
2018-06-29T01:52:07.563Z,98.57
2018-06-29T01:53:08.061Z,98.47
2018-06-29T01:54:07.518Z,98.66
2018-06-29T01:55:07.167Z,98.47
2018-06-29T01:56:07.612Z,98.38
2018-06-29T01:57:08.061Z,97.99
2018-06-29T01:58:07.544Z,97.33
2018-06-29T01:59:08.101Z,97.42
2018-06-29T02:00:07.465Z,97.71
2018-06-29T02:01:08.088Z,97.18
2018-06-29T02:02:07.751Z,96.99
2018-06-29T02:03:06.949Z,97.37
2018-06-29T02:04:07.273Z,97.18
2018-06-29T02:05:07.887Z,96.61
2018-06-29T02:06:07.297Z,97.08
2018-06-29T02:07:07.863Z,96.99
2018-06-29T02:08:07.436Z,96.80
2018-06-29T02:09:07.656Z,96.94
2018-06-29T02:10:07.936Z,97.04
2018-06-29T02:11:07.489Z,96.56
2018-06-29T02:12:08.049Z,96.75
2018-06-29T02:13:07.577Z,96.27
2018-06-29T02:14:07.165Z,96.08
2018-06-29T02:15:07.387Z,95.98
2018-06-29T02:16:07.620Z,95.98
2018-06-29T02:17:08.022Z,95.79
2018-06-29T02:18:07.321Z,95.61
2018-06-29T02:19:07.684Z,95.36
2018-06-29T02:20:07.160Z,95.27
2018-06-29T02:21:07.336Z,95.07
2018-06-29T02:22:07.897Z,95.07
2018-06-29T02:23:07.421Z,94.89
2018-06-29T02:24:29.140Z,95.46
2018-06-29T02:25:29.435Z,95.27
2018-06-29T02:26:29.955Z,95.17
2018-06-29T02:27:50.762Z,94.98
2018-06-29T02:28:50.990Z,95.07
2018-06-29T02:29:51.522Z,95.56
2018-06-29T02:30:50.958Z,95.36
2018-06-29T02:31:51.528Z,95.56
2018-06-29T02:32:51.058Z,95.56
2018-06-29T02:33:51.622Z,94.79
2018-06-29T02:34:50.861Z,94.22
2018-06-29T02:35:51.259Z,94.51
2018-06-29T02:36:50.754Z,94.60
2018-06-29T02:37:51.205Z,94.70
2018-06-29T02:40:38.329Z,93.93
2018-06-29T02:41:38.654Z,94.12
2018-06-29T02:42:39.507Z,94.22
2018-06-29T02:43:39.021Z,94.22
2018-06-29T02:44:38.884Z,94.41
2018-06-29T02:45:39.295Z,93.16
2018-06-29T02:46:38.806Z,92.97
2018-06-29T02:47:39.648Z,92.69
2018-06-29T02:49:00.414Z,92.59
2018-06-29T02:50:22.322Z,91.74
2018-06-29T02:51:22.786Z,91.45
2018-06-29T02:52:22.140Z,91.16
2018-06-29T02:53:22.874Z,90.68
2018-06-29T02:54:22.410Z,91.45
2018-06-29T02:55:44.196Z,93.41
2018-06-29T02:56:44.652Z,93.50
2018-06-29T02:57:44.193Z,93.50
2018-06-29T02:58:44.686Z,94.07
2018-06-29T02:59:44.326Z,93.60
2018-06-29T03:00:44.784Z,93.21
2018-06-29T03:02:05.396Z,92.55
2018-06-29T03:03:06.012Z,92.16
2018-06-29T03:04:05.627Z,91.78
2018-06-29T03:05:06.003Z,91.40
2018-06-29T03:06:05.621Z,91.50
2018-06-29T03:07:06.322Z,90.92
2018-06-29T03:08:05.877Z,90.45
2018-06-29T03:09:06.480Z,90.06
2018-06-29T03:10:06.036Z,90.25
2018-06-29T03:11:05.591Z,90.16
2018-06-29T03:12:06.413Z,89.49
2018-06-29T03:13:06.022Z,89.68
2018-06-29T03:14:05.670Z,90.16
2018-06-29T03:15:06.182Z,90.25
2018-06-29T03:16:05.733Z,90.16
2018-06-29T03:17:06.159Z,90.16
2018-06-29T03:18:05.654Z,90.06
2018-06-29T03:19:05.994Z,89.97
2018-06-29T03:20:05.413Z,90.73
2018-06-29T03:21:06.050Z,90.73
2018-06-29T03:22:05.421Z,90.73
2018-06-29T03:23:06.112Z,91.02
2018-06-29T03:24:05.617Z,92.16
2018-06-29T03:25:06.083Z,92.36
2018-06-29T03:26:05.465Z,92.74
2018-06-29T03:27:05.831Z,91.50
2018-06-29T03:28:06.216Z,91.30
2018-06-29T03:29:05.496Z,90.25
2018-06-29T03:30:05.945Z,90.45
2018-06-29T03:31:05.350Z,89.68
2018-06-29T03:32:06.249Z,89.78
2018-06-29T03:33:27.174Z,90.45
2018-06-29T03:34:27.660Z,88.25
2018-06-29T03:35:27.216Z,87.77
2018-06-29T03:36:27.863Z,85.86
2018-06-29T03:37:27.461Z,87.01
2018-06-29T03:38:27.998Z,87.29
2018-06-29T03:39:48.838Z,88.06
2018-06-29T03:40:49.330Z,88.25
2018-06-29T03:42:31.496Z,86.63
2018-06-29T03:43:32.314Z,85.86
2018-06-29T03:44:31.853Z,85.96
2018-06-29T03:45:31.703Z,85.77
2018-06-29T03:46:32.411Z,85.67
2018-06-29T03:47:31.912Z,85.67
2018-06-29T03:48:31.386Z,85.86
2018-06-29T03:49:32.306Z,84.81
2018-06-29T03:50:32.027Z,84.33
2018-06-29T03:51:31.753Z,85.29
2018-06-29T03:52:32.385Z,84.62
2018-06-29T03:53:31.930Z,84.33
2018-06-29T03:54:31.547Z,84.14
2018-06-29T03:55:53.637Z,85.96
2018-06-29T03:56:54.110Z,87.39
2018-06-29T03:57:53.613Z,87.68
2018-06-29T03:58:54.021Z,87.96
2018-06-29T03:59:53.728Z,87.20
2018-06-29T04:00:54.227Z,88.06
2018-06-29T04:01:53.969Z,88.15
2018-06-29T04:02:54.273Z,87.87
2018-06-29T04:03:53.698Z,87.20
2018-06-29T04:04:54.312Z,86.43
2018-06-29T04:06:36.579Z,85.67
2018-06-29T04:08:23.250Z,85.58
2018-06-29T04:09:12.735Z,85.19
2018-06-29T04:10:13.186Z,84.33
2018-06-29T04:11:12.906Z,84.33
2018-06-29T04:12:12.370Z,85.00
2018-06-29T04:13:13.170Z,85.29
2018-06-29T04:14:12.819Z,85.38
2018-06-29T04:15:12.570Z,85.10
2018-06-29T04:16:13.099Z,85.00
2018-06-29T04:17:55.353Z,83.47
2018-06-29T04:18:55.741Z,83.28
2018-06-29T04:19:55.198Z,83.67
2018-06-29T04:20:55.691Z,83.28
2018-06-29T04:21:55.404Z,82.90
2018-06-29T04:22:55.825Z,82.81
2018-06-29T04:23:55.396Z,82.23
2018-06-29T04:24:56.142Z,81.66
2018-06-29T04:25:55.548Z,81.32
2018-06-29T04:26:56.224Z,80.93
2018-06-29T04:27:55.671Z,80.65
2018-06-29T04:28:56.232Z,80.55
2018-06-29T04:29:55.781Z,80.36
2018-06-29T04:30:55.423Z,80.07
2018-06-29T04:31:56.058Z,78.83
2018-06-29T04:32:55.745Z,78.83
2018-06-29T04:33:55.269Z,78.07
2018-06-29T04:35:17.172Z,77.78
2018-06-29T04:36:17.697Z,77.53
2018-06-29T04:37:18.177Z,77.06
2018-06-29T04:38:18.553Z,76.96
2018-06-29T04:39:18.234Z,77.44
2018-06-29T04:40:17.928Z,78.20
2018-06-29T04:41:17.351Z,78.39
2018-06-29T04:42:18.069Z,78.68
2018-06-29T04:43:17.708Z,78.72
2018-06-29T04:44:18.295Z,78.91
2018-06-29T04:45:18.045Z,79.29
2018-06-29T04:46:17.701Z,79.49
2018-06-29T04:47:17.475Z,79.87
2018-06-29T04:48:18.233Z,80.16
2018-06-29T04:49:17.803Z,80.63
2018-06-29T04:50:17.486Z,80.82
2018-06-29T04:51:18.379Z,81.15
2018-06-29T04:52:39.295Z,81.82
2018-06-29T04:54:01.317Z,82.11
2018-06-29T04:55:01.688Z,82.68
2018-06-29T04:56:02.182Z,83.45
2018-06-29T04:57:01.872Z,83.54
2018-06-29T04:58:01.427Z,84.45
2018-06-29T04:59:01.873Z,85.50
2018-06-29T05:00:02.463Z,85.50
2018-06-29T05:01:02.145Z,86.17
2018-06-29T05:02:01.994Z,86.08
2018-06-29T05:03:01.650Z,86.55
2018-06-29T05:04:02.271Z,86.65
2018-06-29T05:05:01.911Z,86.84
2018-06-29T05:06:23.088Z,87.46
2018-06-29T05:07:23.659Z,87.84
2018-06-29T05:08:23.097Z,88.70
2018-06-29T05:09:23.818Z,88.99
2018-06-29T05:10:23.433Z,89.28
2018-06-29T05:12:09.252Z,89.37
2018-06-29T05:13:32.995Z,90.43
2018-06-29T05:14:55.386Z,90.95
2018-06-29T05:16:17.765Z,91.91
2018-06-29T05:17:18.354Z,92.20
2018-06-29T05:18:17.888Z,92.01
2018-06-29T05:19:18.241Z,92.77
2018-06-29T05:20:18.980Z,92.68
2018-06-29T05:21:18.428Z,93.30
2018-06-29T05:22:18.223Z,93.78
2018-06-29T05:23:17.834Z,94.26
2018-06-29T05:24:18.385Z,94.45
2018-06-29T05:25:18.140Z,94.93
2018-06-29T05:26:43.082Z,95.03
2018-06-29T05:27:43.671Z,95.12
2018-06-29T05:28:43.305Z,95.65
2018-06-29T05:29:43.755Z,95.84
2018-06-29T05:30:43.555Z,95.55
2018-06-29T05:32:07.015Z,96.32
2018-06-29T05:33:52.824Z,96.51
2018-06-29T05:34:52.674Z,97.09
2018-06-29T05:35:52.850Z,96.51
2018-06-29T05:36:52.404Z,97.28
2018-06-29T05:37:53.032Z,97.71
2018-06-29T05:38:52.677Z,97.61
2018-06-29T05:39:52.438Z,97.81
2018-06-29T05:40:53.172Z,98.67
2018-06-29T05:41:53.032Z,98.91
2018-06-29T05:43:16.656Z,98.82
2018-06-29T05:44:17.203Z,99.30
2018-06-29T05:45:17.280Z,99.40
2018-06-29T05:46:17.103Z,99.40
2018-06-29T05:47:16.862Z,99.78
2018-06-29T05:48:16.835Z,99.78
2018-06-29T05:49:16.744Z,99.83
2018-06-29T05:51:03.964Z,99.99
2018-06-29T05:52:04.644Z,99.83
2018-06-29T05:53:04.353Z,99.99
2018-06-29T05:54:04.273Z,99.99
2018-06-29T05:55:05.227Z,99.99
2018-06-29T05:56:05.120Z,99.99
2018-06-29T05:57:05.363Z,99.99
2018-06-29T05:58:05.200Z,99.99
2018-06-29T05:59:05.042Z,99.99
2018-06-29T06:00:05.154Z,99.99
2018-06-29T06:01:04.871Z,99.99
2018-06-29T06:02:04.548Z,99.99
2018-06-29T06:03:04.152Z,99.99
2018-06-29T06:04:04.992Z,99.99
2018-06-29T06:05:04.788Z,99.99
2018-06-29T06:06:26.900Z,99.40
2018-06-29T06:07:26.788Z,99.69
2018-06-29T06:08:26.556Z,99.40
2018-06-29T06:09:27.468Z,99.30
2018-06-29T06:10:26.288Z,99.16
2018-06-29T06:11:27.290Z,98.77
2018-06-29T06:12:27.797Z,98.39
2018-06-29T06:13:26.368Z,98.05
2018-06-29T06:14:28.045Z,98.05
2018-06-29T06:15:26.790Z,97.28
2018-06-29T06:16:31.663Z,96.61
2018-06-29T06:17:53.627Z,96.75
2018-06-29T06:18:59.047Z,96.37
2018-06-29T06:19:54.446Z,96.27
2018-06-29T06:20:54.044Z,96.27
2018-06-29T06:21:53.635Z,95.45
2018-06-29T06:22:54.641Z,94.68
2018-06-29T06:23:54.628Z,94.39
2018-06-29T06:24:54.108Z,94.68
2018-06-29T06:25:58.300Z,93.95
2018-06-29T06:26:55.356Z,94.53
2018-06-29T06:27:55.276Z,94.05
2018-06-29T06:28:53.893Z,92.36
2018-06-29T06:29:55.076Z,91.49
2018-06-29T06:30:54.124Z,92.16
2018-06-29T06:31:54.357Z,91.39
2018-06-29T06:32:54.200Z,90.57
2018-06-29T06:33:54.425Z,89.70
2018-06-29T06:34:54.317Z,88.78
2018-06-29T06:35:54.699Z,87.71
2018-06-29T06:36:54.417Z,86.17
2018-06-29T06:37:54.265Z,86.07
2018-06-29T06:38:53.965Z,85.40
2018-06-29T06:39:54.516Z,83.80
2018-06-29T06:40:54.453Z,83.89
2018-06-29T06:41:54.735Z,83.51
2018-06-29T06:42:56.451Z,83.61
2018-06-29T06:43:54.676Z,84.61
2018-06-29T06:45:17.156Z,82.39
2018-06-29T06:46:16.822Z,81.07
2018-06-29T06:47:17.629Z,80.11
2018-06-29T06:48:18.320Z,80.40
2018-06-29T06:49:17.675Z,80.15
2018-06-29T06:50:40.914Z,78.41
2018-06-29T06:51:47.274Z,77.96
2018-06-29T06:52:40.959Z,78.83
2018-06-29T06:53:41.937Z,78.15
2018-06-29T06:54:48.838Z,76.93
2018-06-29T06:55:43.796Z,76.06
2018-06-29T06:57:14.091Z,75.67
2018-06-29T06:58:14.779Z,74.93
2018-06-29T06:59:14.469Z,74.74
2018-06-29T07:00:14.413Z,73.96
2018-06-29T07:01:38.820Z,74.35
2018-06-29T07:03:08.140Z,74.06
2018-06-29T07:04:39.767Z,74.10
2018-06-29T07:05:38.900Z,73.61
2018-06-29T07:06:38.977Z,73.71
2018-06-29T07:07:39.225Z,73.16
2018-06-29T07:09:04.045Z,72.58
2018-06-29T07:10:04.617Z,72.03
2018-06-29T07:11:04.741Z,70.87
2018-06-29T07:12:51.794Z,71.64
2018-06-29T07:13:51.827Z,70.39
2018-06-29T07:14:51.982Z,70.87
2018-06-29T07:16:15.660Z,69.84
2018-06-29T07:17:15.613Z,69.64
2018-06-29T07:18:16.671Z,68.87
2018-06-29T07:19:15.502Z,68.51
2018-06-29T07:20:16.462Z,68.22
2018-06-29T07:21:16.368Z,68.22
2018-06-29T07:22:40.199Z,66.60
2018-06-29T07:23:39.797Z,66.60
2018-06-29T07:25:01.888Z,65.95
2018-06-29T07:26:02.493Z,64.49
2018-06-29T07:27:02.449Z,65.85
2018-06-29T07:28:02.056Z,65.11
2018-06-29T07:29:03.195Z,64.23
2018-06-29T07:30:02.871Z,63.94
2018-06-29T07:31:02.712Z,62.41
2018-06-29T07:32:02.643Z,61.44
2018-06-29T07:33:02.439Z,60.85
2018-06-29T07:34:02.150Z,60.30
2018-06-29T07:35:03.155Z,61.76
2018-06-29T07:36:02.834Z,62.54
2018-06-29T07:37:02.581Z,62.28
2018-06-29T07:38:02.438Z,61.69
2018-06-29T07:39:02.618Z,62.57
2018-06-29T07:40:03.003Z,62.57
2018-06-29T07:41:02.709Z,61.24
2018-06-29T07:42:02.323Z,59.97
2018-06-29T07:43:02.227Z,60.65
2018-06-29T07:44:03.207Z,59.87
2018-06-29T07:45:02.325Z,60.03
2018-06-29T07:46:02.600Z,60.52
2018-06-29T07:47:02.804Z,60.13
2018-06-29T07:48:02.509Z,58.50
2018-06-29T07:49:02.245Z,56.00
2018-06-29T07:50:02.050Z,55.61
2018-06-29T07:51:02.851Z,55.71
2018-06-29T07:52:03.034Z,55.73
2018-06-29T07:53:26.398Z,55.93
2018-06-29T07:54:26.997Z,55.34
2018-06-29T07:55:50.755Z,55.37
2018-06-29T07:56:51.610Z,55.27
2018-06-29T07:57:51.589Z,55.20
2018-06-29T07:58:51.744Z,54.91
2018-06-29T08:00:36.903Z,55.18
2018-06-29T08:01:37.764Z,54.39
2018-06-29T08:02:37.753Z,54.39
2018-06-29T08:04:01.404Z,54.39
2018-06-29T08:05:02.292Z,54.59
2018-06-29T08:06:02.334Z,53.25
2018-06-29T08:07:25.839Z,52.95
2018-06-29T08:08:25.571Z,54.03
2018-06-29T08:09:26.538Z,53.93
2018-06-29T08:10:26.500Z,54.71
2018-06-29T08:11:26.552Z,54.52
2018-06-29T08:12:26.682Z,54.35
2018-06-29T08:13:26.470Z,54.05
2018-06-29T08:14:26.349Z,53.66
2018-06-29T08:15:26.494Z,53.96
2018-06-29T08:16:26.293Z,53.17
2018-06-29T08:17:26.306Z,53.30
2018-06-29T08:18:26.131Z,51.07
2018-06-29T08:19:50.367Z,50.66
2018-06-29T08:20:49.989Z,51.93
2018-06-29T08:21:50.824Z,51.93
2018-06-29T08:22:50.963Z,52.83
2018-06-29T08:23:50.750Z,51.27
2018-06-29T08:24:50.758Z,52.12
2018-06-29T08:25:50.351Z,52.64
2018-06-29T08:26:50.306Z,52.73
2018-06-29T08:27:50.426Z,51.98
2018-06-29T08:28:50.667Z,52.86
2018-06-29T08:30:14.400Z,51.76
2018-06-29T08:32:26.754Z,52.96
2018-06-29T08:33:49.966Z,51.49
2018-06-29T08:34:50.748Z,51.20
2018-06-29T08:35:50.669Z,50.61
2018-06-29T08:36:50.629Z,51.20
2018-06-29T08:37:50.310Z,51.42
2018-06-29T08:38:51.130Z,51.12
2018-06-29T08:39:51.155Z,51.15
2018-06-29T08:40:50.641Z,49.41
2018-06-29T08:41:50.610Z,48.92
2018-06-29T08:42:50.434Z,49.58
2018-06-29T08:43:50.259Z,49.55
2018-06-29T08:45:13.204Z,50.46
2018-06-29T08:46:14.056Z,49.51
2018-06-29T08:47:13.970Z,49.60
2018-06-29T08:48:14.133Z,49.58
2018-06-29T08:49:37.659Z,49.14
2018-06-29T08:50:38.677Z,49.63
2018-06-29T08:51:38.649Z,48.26
2018-06-29T08:52:38.360Z,49.16
2018-06-29T08:53:38.578Z,48.38
2018-06-29T08:54:38.209Z,48.68
2018-06-29T08:55:38.263Z,48.77
2018-06-29T08:56:38.569Z,48.19
2018-06-29T08:58:02.535Z,47.33
2018-06-29T08:59:03.116Z,47.03
2018-06-29T09:00:03.177Z,46.47
2018-06-29T09:01:03.241Z,46.47
2018-06-29T09:02:03.307Z,47.45
2018-06-29T09:03:03.487Z,47.57
2018-06-29T09:04:02.514Z,47.89
2018-06-29T09:05:24.320Z,45.75
2018-06-29T09:06:25.705Z,45.67
2018-06-29T09:07:24.600Z,46.06
2018-06-29T09:08:48.272Z,44.79
2018-06-29T09:09:49.274Z,44.89
2018-06-29T09:11:12.703Z,45.45
2018-06-29T09:12:36.457Z,45.36
2018-06-29T09:14:02.706Z,46.24
2018-06-29T09:15:26.002Z,45.38
2018-06-29T09:16:26.213Z,46.78
2018-06-29T09:17:26.265Z,45.30
2018-06-29T09:18:26.603Z,45.97
2018-06-29T09:19:26.455Z,44.62
2018-06-29T09:20:26.659Z,44.59
2018-06-29T09:21:26.719Z,44.49
2018-06-29T09:22:26.822Z,44.91
2018-06-29T09:23:26.970Z,43.06
2018-06-29T09:24:27.186Z,41.98
2018-06-29T09:25:26.454Z,42.10
2018-06-29T09:26:26.589Z,42.40
2018-06-29T09:27:50.625Z,41.41
2018-06-29T09:28:50.764Z,41.39
2018-06-29T09:29:50.300Z,42.47
2018-06-29T09:30:51.200Z,42.16
2018-06-29T09:31:51.006Z,42.28
2018-06-29T09:32:50.599Z,41.80
2018-06-29T09:33:50.076Z,42.69
2018-06-29T09:34:50.806Z,42.00
2018-06-29T09:35:50.276Z,42.08
2018-06-29T09:36:50.795Z,41.96
2018-06-29T09:37:51.765Z,42.57
2018-06-29T09:38:51.084Z,41.00
2018-06-29T09:39:50.707Z,40.82
2018-06-29T09:40:50.689Z,41.04
2018-06-29T09:41:50.573Z,39.94
2018-06-29T09:42:50.453Z,40.55
2018-06-29T09:43:51.030Z,41.45
2018-06-29T09:44:50.826Z,40.47
2018-06-29T09:46:13.688Z,40.76
2018-06-29T09:47:38.137Z,41.57
2018-06-29T09:48:38.633Z,40.17
2018-06-29T09:50:01.879Z,40.39
2018-06-29T09:51:25.756Z,39.03
2018-06-29T09:52:26.542Z,39.34
2018-06-29T09:53:26.442Z,40.33
2018-06-29T09:54:26.346Z,38.83
2018-06-29T09:55:26.041Z,39.40
2018-06-29T09:56:27.108Z,39.72
2018-06-29T09:57:49.772Z,39.23
2018-06-29T09:58:50.312Z,37.05
2018-06-29T09:59:49.898Z,38.34
2018-06-29T10:00:55.331Z,37.17
2018-06-29T10:02:14.990Z,37.47
2018-06-29T10:03:36.703Z,36.78
2018-06-29T10:04:37.302Z,36.99
2018-06-29T10:05:37.246Z,36.99
2018-06-29T10:07:00.764Z,35.79
2018-06-29T10:08:22.200Z,36.84
2018-06-29T10:09:23.168Z,37.14
2018-06-29T10:10:22.557Z,36.66
2018-06-29T10:12:07.257Z,36.78
2018-06-29T10:13:07.801Z,36.07
2018-06-29T10:14:07.291Z,37.47
2018-06-29T10:15:08.452Z,35.89
2018-06-29T10:16:08.370Z,36.27
2018-06-29T10:17:08.339Z,36.09
2018-06-29T10:18:08.132Z,34.99
2018-06-29T10:19:07.809Z,34.30
2018-06-29T10:20:07.520Z,33.70
2018-06-29T10:21:07.292Z,34.10
2018-06-29T10:22:07.887Z,32.42
2018-06-29T10:23:30.961Z,34.61
2018-06-29T10:24:32.702Z,34.72
2018-06-29T10:25:31.744Z,34.15
2018-06-29T10:26:31.817Z,33.54
2018-06-29T10:27:31.994Z,33.65
2018-06-29T10:28:31.716Z,33.87
2018-06-29T10:29:31.491Z,33.36
2018-06-29T10:30:31.331Z,33.74
2018-06-29T10:31:30.853Z,33.61
2018-06-29T10:32:31.572Z,33.92
2018-06-29T10:33:53.052Z,33.33
2018-06-29T10:34:53.942Z,33.04
2018-06-29T10:35:53.488Z,33.15
2018-06-29T10:36:53.455Z,33.06
2018-06-29T10:38:16.908Z,32.45
2018-06-29T10:39:16.579Z,32.75
2018-06-29T10:40:17.044Z,32.77
2018-06-29T10:41:16.758Z,31.59
2018-06-29T10:42:17.263Z,31.98
2018-06-29T10:43:16.878Z,33.26
2018-06-29T10:44:16.374Z,33.34
2018-06-29T10:45:17.275Z,32.67
2018-06-29T10:46:16.789Z,32.75
2018-06-29T10:47:17.468Z,32.65
2018-06-29T10:48:17.524Z,32.95
2018-06-29T10:49:16.964Z,33.46
2018-06-29T10:50:16.891Z,32.64
2018-06-29T10:51:16.825Z,32.93
2018-06-29T10:52:16.304Z,32.85
2018-06-29T10:53:16.801Z,32.35
2018-06-29T10:54:16.309Z,31.98
2018-06-29T10:55:17.221Z,31.98
2018-06-29T10:56:16.851Z,32.29
2018-06-29T10:57:40.100Z,31.40
2018-06-29T10:58:40.601Z,30.40
2018-06-29T10:59:40.100Z,31.57
2018-06-29T11:01:03.882Z,31.88
2018-06-29T11:02:03.572Z,30.69
2018-06-29T11:03:04.681Z,31.68
2018-06-29T11:04:04.419Z,31.30
2018-06-29T11:05:04.183Z,31.01
2018-06-29T11:06:04.664Z,31.10
2018-06-29T11:07:04.741Z,30.68
2018-06-29T11:08:04.511Z,31.76
2018-06-29T11:09:04.481Z,31.57
2018-06-29T11:11:38.297Z,31.88
2018-06-29T11:12:38.976Z,30.78
2018-06-29T11:14:02.788Z,31.07
2018-06-29T11:15:02.632Z,30.96
2018-06-29T11:16:02.505Z,32.16
2018-06-29T11:17:02.433Z,31.78
2018-06-29T11:18:02.532Z,31.01
2018-06-29T11:19:02.014Z,31.70
2018-06-29T11:20:03.003Z,31.98
2018-06-29T11:21:26.135Z,31.10
2018-06-29T11:22:26.644Z,31.70
2018-06-29T11:23:26.068Z,32.31
2018-06-29T11:24:50.309Z,32.31
2018-06-29T11:25:50.915Z,32.03
2018-06-29T11:27:14.814Z,31.74
2018-06-29T11:28:15.516Z,30.74
2018-06-29T11:29:15.311Z,31.13
2018-06-29T11:30:15.369Z,31.22
2018-06-29T11:31:15.294Z,31.91
2018-06-29T11:32:14.923Z,32.42
2018-06-29T11:33:38.649Z,31.13
2018-06-29T11:34:39.733Z,31.25
2018-06-29T11:36:03.179Z,31.43
2018-06-29T11:37:03.278Z,30.85
2018-06-29T11:38:03.551Z,30.26
2018-06-29T11:39:03.603Z,30.67
2018-06-29T11:40:08.523Z,29.99
2018-06-29T11:41:03.579Z,30.19
2018-06-29T11:42:03.318Z,30.47
2018-06-29T11:43:03.573Z,30.83
2018-06-29T11:44:03.604Z,31.23
2018-06-29T11:45:03.035Z,30.43
2018-06-29T11:46:04.720Z,30.83
2018-06-29T11:47:03.801Z,30.74
2018-06-29T11:48:03.466Z,30.43
2018-06-29T11:49:24.712Z,30.21
2018-06-29T11:50:25.465Z,31.09
2018-06-29T11:51:25.274Z,31.59
2018-06-29T11:52:25.293Z,31.01
2018-06-29T11:53:46.325Z,31.71
2018-06-29T11:54:46.990Z,30.94
2018-06-29T11:56:08.093Z,31.71
2018-06-29T11:57:08.843Z,31.09
2018-06-29T11:58:29.573Z,31.48
2018-06-29T11:59:30.214Z,31.60
2018-06-29T12:00:30.636Z,31.70
2018-06-29T12:01:51.774Z,30.82
2018-06-29T12:02:52.363Z,30.26
2018-06-29T12:03:52.358Z,29.95
2018-06-29T12:04:51.971Z,30.76
2018-06-29T12:05:51.883Z,30.47
2018-06-29T12:06:52.382Z,30.67
2018-06-29T12:07:52.375Z,30.08
2018-06-29T12:09:13.181Z,31.66
2018-06-29T12:10:13.953Z,32.15
2018-06-29T12:11:13.592Z,30.98
2018-06-29T12:12:14.092Z,30.58
2018-06-29T12:13:13.846Z,31.16
2018-06-29T12:14:13.386Z,30.36
2018-06-29T12:15:14.066Z,31.45
2018-06-29T12:16:13.513Z,32.14
2018-06-29T12:17:13.222Z,31.25
2018-06-29T12:18:14.199Z,31.45
2018-06-29T12:19:14.186Z,30.97
2018-06-29T12:20:13.781Z,31.15
2018-06-29T12:21:13.603Z,31.94
2018-06-29T12:22:13.508Z,30.83
2018-06-29T12:23:14.278Z,31.22
2018-06-29T12:24:37.346Z,29.83
2018-06-29T12:25:38.351Z,30.24
2018-06-29T12:26:59.748Z,30.55
2018-06-29T12:28:00.681Z,31.25
2018-06-29T12:29:00.485Z,30.26
2018-06-29T12:30:00.052Z,29.86
2018-06-29T12:30:59.885Z,29.96
2018-06-29T12:31:59.582Z,29.65
2018-06-29T12:33:00.466Z,30.92
2018-06-29T12:34:43.230Z,30.52
2018-06-29T12:35:43.003Z,29.96
2018-06-29T12:36:43.565Z,30.36
2018-06-29T12:38:07.031Z,29.78
2018-06-29T12:39:06.794Z,31.16
2018-06-29T12:40:07.614Z,29.97
2018-06-29T12:41:07.390Z,29.86
2018-06-29T12:42:06.888Z,29.85
2018-06-29T12:43:07.424Z,30.64
2018-06-29T12:44:30.728Z,29.47
2018-06-29T12:45:33.243Z,30.08
2018-06-29T12:46:31.347Z,29.58
2018-06-29T12:47:30.906Z,30.76
2018-06-29T12:48:31.710Z,29.96
2018-06-29T12:49:31.659Z,30.64
2018-06-29T12:50:53.241Z,30.85
2018-06-29T12:51:53.228Z,30.44
2018-06-29T12:52:52.893Z,30.34
2018-06-29T12:53:53.829Z,30.44
2018-06-29T12:54:53.503Z,30.44
2018-06-29T12:56:16.010Z,29.93
2018-06-29T12:57:38.710Z,29.55
2018-06-29T12:59:00.649Z,29.65
2018-06-29T13:00:01.200Z,30.26
2018-06-29T13:01:01.090Z,30.76
2018-06-29T13:02:00.757Z,29.17
2018-06-29T13:03:00.990Z,29.66
2018-06-29T13:04:01.481Z,31.22
2018-06-29T13:05:00.874Z,31.79
2018-06-29T13:06:00.727Z,32.59
2018-06-29T13:07:00.680Z,32.18
2018-06-29T13:08:00.662Z,31.90
2018-06-29T13:09:00.352Z,32.90
2018-06-29T13:10:00.287Z,32.19
2018-06-29T13:11:00.341Z,32.75
2018-06-29T13:12:00.967Z,33.64
2018-06-29T13:13:23.485Z,34.41
2018-06-29T13:14:23.109Z,33.84
2018-06-29T13:15:45.419Z,34.13
2018-06-29T13:16:45.418Z,34.03
2018-06-29T13:17:45.871Z,34.43
2018-06-29T13:18:45.500Z,34.72
2018-06-29T13:19:46.018Z,34.25
2018-06-29T13:21:08.214Z,34.33
2018-06-29T13:22:07.869Z,35.00
2018-06-29T13:23:52.983Z,35.50
2018-06-29T13:25:39.325Z,35.96
2018-06-29T13:26:40.796Z,36.92
2018-06-29T13:27:40.381Z,37.61
2018-06-29T13:29:24.034Z,37.22
2018-06-29T13:30:24.779Z,37.10
2018-06-29T13:31:24.935Z,37.69
2018-06-29T13:32:25.195Z,37.61
2018-06-29T13:33:25.054Z,37.41
2018-06-29T13:34:24.367Z,37.83
2018-06-29T13:35:24.181Z,36.84
2018-06-29T13:36:24.184Z,37.26
2018-06-29T13:37:45.874Z,37.35
2018-06-29T13:38:50.894Z,36.96
2018-06-29T13:39:46.830Z,36.76
2018-06-29T13:40:47.807Z,37.35
2018-06-29T13:42:07.941Z,37.73
2018-06-29T13:43:11.871Z,38.42
2018-06-29T13:44:09.430Z,37.81
2018-06-29T13:45:08.562Z,38.40
2018-06-29T13:46:09.580Z,39.39
2018-06-29T13:47:09.544Z,38.99
2018-06-29T13:48:08.883Z,38.89